createdAt,value
2023-01-12T00:00:37.406Z,4.57
2023-01-12T00:03:20.328Z,4.57
2023-01-12T00:05:50.491Z,4.52
2023-01-12T00:08:19.547Z,4.54
2023-01-12T00:10:48.323Z,4.53
2023-01-12T00:13:17.422Z,4.52
2023-01-12T00:16:00.101Z,4.50
2023-01-12T00:18:29.191Z,4.53
2023-01-12T00:20:59.385Z,4.57
2023-01-12T00:23:30.383Z,4.61
2023-01-12T00:25:59.219Z,4.54
2023-01-12T00:28:28.335Z,4.72
2023-01-12T00:31:02.160Z,4.64
2023-01-12T00:33:31.319Z,4.65
2023-01-12T00:36:05.694Z,4.64
2023-01-12T00:38:37.185Z,4.57
2023-01-12T00:41:07.578Z,4.58
2023-01-12T00:43:54.493Z,4.61
2023-01-12T00:46:31.661Z,4.64
2023-01-12T00:49:00.816Z,4.61
2023-01-12T00:51:31.086Z,4.63
2023-01-12T00:54:04.430Z,4.58
2023-01-12T00:56:33.459Z,4.65
2023-01-12T00:59:03.047Z,4.67
2023-01-12T01:01:34.439Z,4.68
2023-01-12T01:04:03.922Z,4.59
2023-01-12T01:06:34.147Z,4.58
2023-01-12T01:09:03.218Z,4.59
2023-01-12T01:11:32.284Z,4.60
2023-01-12T01:14:01.869Z,4.66
2023-01-12T01:16:31.290Z,4.59
2023-01-12T01:19:03.216Z,4.63
2023-01-12T01:21:34.374Z,4.66
2023-01-12T01:24:03.524Z,4.74
2023-01-12T01:26:33.727Z,4.68
2023-01-12T01:29:02.842Z,4.68
2023-01-12T01:31:31.864Z,4.72
2023-01-12T01:34:01.016Z,4.75
2023-01-12T01:36:29.858Z,4.74
2023-01-12T01:39:00.738Z,4.78
2023-01-12T01:41:33.472Z,4.77
2023-01-12T01:44:06.130Z,4.83
2023-01-12T01:46:45.102Z,4.93
2023-01-12T01:49:31.704Z,4.93
2023-01-12T01:52:07.235Z,4.96
2023-01-12T01:54:43.995Z,5.00
2023-01-12T01:57:15.705Z,5.00
2023-01-12T01:59:52.056Z,5.05
2023-01-12T02:02:21.158Z,5.05
2023-01-12T02:04:50.368Z,5.03
2023-01-12T02:07:19.287Z,5.07
2023-01-12T02:09:49.747Z,5.14
2023-01-12T02:12:35.771Z,5.13
2023-01-12T02:15:23.108Z,5.16
2023-01-12T02:18:14.005Z,5.24
2023-01-12T02:21:01.871Z,5.27
2023-01-12T02:24:28.035Z,5.31
2023-01-12T02:27:26.521Z,5.30
2023-01-12T02:30:51.361Z,5.33
2023-01-12T02:33:43.497Z,5.37
2023-01-12T02:36:25.588Z,5.37
2023-01-12T02:39:05.547Z,5.40
2023-01-12T02:41:59.731Z,5.41
2023-01-12T02:44:40.825Z,5.39
2023-01-12T02:47:19.623Z,5.44
2023-01-12T02:49:57.563Z,5.47
2023-01-12T02:52:31.540Z,5.48
2023-01-12T02:55:04.961Z,5.50
2023-01-12T02:57:38.468Z,5.52
2023-01-12T03:00:10.556Z,5.53
2023-01-12T03:02:40.179Z,5.55
2023-01-12T03:05:11.317Z,5.58
2023-01-12T03:07:49.945Z,5.59
2023-01-12T03:10:42.712Z,5.62
2023-01-12T03:13:16.998Z,5.63
2023-01-12T03:15:51.151Z,5.67
2023-01-12T03:18:30.124Z,5.68
2023-01-12T03:21:07.973Z,5.72
2023-01-12T03:23:45.685Z,5.70
2023-01-12T03:26:24.131Z,5.70
2023-01-12T03:29:01.801Z,5.70
2023-01-12T03:31:31.857Z,5.71
2023-01-12T03:34:01.832Z,5.70
2023-01-12T03:36:46.600Z,5.71
2023-01-12T03:39:26.488Z,5.74
2023-01-12T03:42:03.199Z,5.75
2023-01-12T03:44:42.251Z,5.79
2023-01-12T03:47:29.274Z,5.86
2023-01-12T03:50:04.974Z,5.87
2023-01-12T03:52:39.630Z,5.88
2023-01-12T03:55:13.739Z,5.89
2023-01-12T03:57:45.647Z,5.91
2023-01-12T04:00:18.044Z,5.91
2023-01-12T04:02:48.049Z,5.92
2023-01-12T04:05:17.549Z,5.94
2023-01-12T04:07:47.983Z,5.98
2023-01-12T04:10:17.383Z,6.02
2023-01-12T04:12:46.467Z,6.04
2023-01-12T04:15:15.428Z,6.05
2023-01-12T04:17:44.482Z,6.14
2023-01-12T04:20:14.623Z,6.14
2023-01-12T04:22:43.639Z,6.12
2023-01-12T04:25:16.727Z,6.27
2023-01-12T04:27:49.658Z,6.25
2023-01-12T04:30:23.541Z,6.22
2023-01-12T04:32:53.201Z,6.35
2023-01-12T04:35:22.046Z,6.45
2023-01-12T04:37:51.887Z,6.38
2023-01-12T04:40:22.345Z,6.44
2023-01-12T04:43:06.998Z,6.33
2023-01-12T04:45:39.887Z,6.42
2023-01-12T04:48:12.779Z,6.39
2023-01-12T04:50:42.754Z,6.38
2023-01-12T04:53:13.860Z,6.52
2023-01-12T04:55:45.192Z,6.47
2023-01-12T04:58:14.366Z,6.46
2023-01-12T05:00:43.559Z,6.49
2023-01-12T05:03:14.132Z,6.51
2023-01-12T05:05:43.334Z,6.46
2023-01-12T05:08:29.910Z,6.60
2023-01-12T05:11:02.373Z,6.49
2023-01-12T05:13:33.284Z,6.54
2023-01-12T05:16:10.962Z,6.49
2023-01-12T05:18:40.261Z,6.46
2023-01-12T05:21:09.114Z,6.52
2023-01-12T05:23:38.296Z,6.51
2023-01-12T05:26:08.970Z,6.51
2023-01-12T05:28:38.094Z,6.60
2023-01-12T05:31:10.167Z,6.62
2023-01-12T05:33:41.632Z,6.58
2023-01-12T05:36:13.999Z,6.52
2023-01-12T05:38:43.772Z,6.53
2023-01-12T05:41:16.810Z,6.72
2023-01-12T05:43:50.812Z,6.68
2023-01-12T05:46:23.057Z,6.67
2023-01-12T05:48:53.964Z,6.69
2023-01-12T05:51:23.347Z,6.66
2023-01-12T05:53:52.598Z,6.67
2023-01-12T05:56:26.172Z,6.67
2023-01-12T05:58:58.455Z,6.63
2023-01-12T06:01:29.372Z,6.72
2023-01-12T06:04:01.715Z,6.73
2023-01-12T06:06:32.921Z,6.76
2023-01-12T06:09:03.854Z,6.74
2023-01-12T06:11:51.434Z,6.73
2023-01-12T06:14:20.516Z,6.81
2023-01-12T06:16:49.330Z,6.80
2023-01-12T06:19:18.441Z,6.93
2023-01-12T06:21:47.263Z,6.92
2023-01-12T06:24:16.419Z,6.89
2023-01-12T06:26:46.705Z,6.92
2023-01-12T06:29:15.829Z,6.86
2023-01-12T06:31:44.867Z,6.92
2023-01-12T06:34:14.224Z,6.92
2023-01-12T06:36:43.370Z,6.92
2023-01-12T06:39:14.128Z,7.01
2023-01-12T06:42:00.143Z,6.95
2023-01-12T06:44:30.619Z,6.98
2023-01-12T06:46:59.457Z,7.09
2023-01-12T06:49:28.550Z,7.02
2023-01-12T06:51:57.361Z,7.10
2023-01-12T06:54:26.472Z,7.04
2023-01-12T06:56:55.793Z,7.02
2023-01-12T06:59:24.982Z,7.04
2023-01-12T07:01:55.293Z,7.04
2023-01-12T07:04:24.589Z,7.07
2023-01-12T07:06:56.189Z,7.10
2023-01-12T07:09:25.393Z,7.08
2023-01-12T07:11:54.246Z,7.11
2023-01-12T07:14:23.324Z,7.08
2023-01-12T07:16:52.169Z,7.14
2023-01-12T07:19:23.022Z,7.17
2023-01-12T07:21:52.050Z,7.14
2023-01-12T07:24:21.162Z,7.15
2023-01-12T07:26:50.850Z,7.17
2023-01-12T07:29:19.936Z,7.19
2023-01-12T07:31:50.143Z,7.19
2023-01-12T07:34:19.517Z,7.19
2023-01-12T07:36:51.485Z,7.15
2023-01-12T07:39:20.824Z,7.13
2023-01-12T07:42:07.214Z,7.13
2023-01-12T07:44:40.305Z,7.16
2023-01-12T07:47:09.195Z,7.15
2023-01-12T07:49:38.413Z,7.15
2023-01-12T07:52:08.862Z,7.19
2023-01-12T07:54:37.933Z,7.19
2023-01-12T07:57:10.872Z,7.13
2023-01-12T07:59:39.924Z,7.15
2023-01-12T08:02:16.453Z,7.15
2023-01-12T08:04:45.862Z,7.20
2023-01-12T08:07:16.173Z,7.18
2023-01-12T08:09:45.356Z,7.19
2023-01-12T08:12:14.348Z,7.15
2023-01-12T08:14:43.793Z,7.11
2023-01-12T08:17:20.107Z,7.17
2023-01-12T08:19:59.695Z,7.25
2023-01-12T08:22:36.625Z,7.28
2023-01-12T08:25:13.466Z,7.12
2023-01-12T08:27:51.047Z,7.10
2023-01-12T08:30:25.891Z,7.01
2023-01-12T08:32:58.675Z,6.94
2023-01-12T08:35:33.492Z,6.94
2023-01-12T08:38:03.790Z,6.92
2023-01-12T08:40:46.825Z,6.86
2023-01-12T08:43:35.685Z,6.83
2023-01-12T08:46:08.037Z,6.85
2023-01-12T08:48:37.543Z,6.90
2023-01-12T08:51:09.288Z,7.04
2023-01-12T08:53:39.461Z,7.08
2023-01-12T08:56:09.374Z,7.14
2023-01-12T08:58:38.662Z,7.20
2023-01-12T09:01:09.969Z,7.31
2023-01-12T09:03:39.968Z,7.46
2023-01-12T09:06:14.836Z,7.64
2023-01-12T09:08:46.113Z,7.79
2023-01-12T09:11:16.956Z,7.88
2023-01-12T09:13:46.044Z,7.95
2023-01-12T09:16:19.049Z,8.09
2023-01-12T09:18:48.225Z,7.99
2023-01-12T09:21:20.303Z,7.93
2023-01-12T09:23:51.248Z,7.65
2023-01-12T09:26:23.019Z,7.57
2023-01-12T09:28:52.569Z,7.49
2023-01-12T09:31:24.290Z,7.48
2023-01-12T09:33:53.633Z,7.47
2023-01-12T09:36:25.994Z,7.54
2023-01-12T09:38:57.314Z,7.57
2023-01-12T09:41:48.166Z,7.58
2023-01-12T09:44:47.098Z,7.60
2023-01-12T09:47:25.201Z,7.65
2023-01-12T09:50:10.493Z,7.68
2023-01-12T09:52:44.811Z,7.72
2023-01-12T09:55:19.548Z,7.78
2023-01-12T09:58:18.658Z,7.87
2023-01-12T10:00:52.346Z,7.88
2023-01-12T10:03:31.727Z,7.95
2023-01-12T10:06:01.665Z,7.90
2023-01-12T10:08:38.264Z,7.90
2023-01-12T10:11:18.387Z,7.92
2023-01-12T10:14:25.578Z,8.04
2023-01-12T10:17:38.571Z,8.03
2023-01-12T10:20:22.297Z,8.00
2023-01-12T10:22:54.804Z,7.96
2023-01-12T10:25:38.984Z,8.00
2023-01-12T10:28:17.912Z,7.97
2023-01-12T10:30:47.603Z,7.99
2023-01-12T10:33:20.259Z,8.03
2023-01-12T10:35:54.125Z,8.07
2023-01-12T10:38:28.857Z,8.08
2023-01-12T10:41:16.763Z,8.14
2023-01-12T10:44:06.281Z,8.10
2023-01-12T10:46:36.214Z,8.20
2023-01-12T10:49:20.937Z,8.15
2023-01-12T10:51:55.904Z,8.18
2023-01-12T10:54:28.557Z,8.24
2023-01-12T10:57:04.249Z,8.29
2023-01-12T10:59:39.013Z,8.31
2023-01-12T11:02:17.359Z,8.41
2023-01-12T11:04:50.315Z,8.37
2023-01-12T11:07:25.671Z,8.27
2023-01-12T11:09:55.310Z,8.30
2023-01-12T11:12:31.117Z,8.34
2023-01-12T11:15:05.448Z,8.30
2023-01-12T11:18:01.197Z,8.35
2023-01-12T11:20:38.103Z,8.36
2023-01-12T11:23:15.763Z,8.38
2023-01-12T11:25:50.622Z,8.39
2023-01-12T11:28:29.397Z,8.49
2023-01-12T11:31:06.352Z,8.50
2023-01-12T11:33:43.702Z,8.53
2023-01-12T11:36:20.982Z,8.61
2023-01-12T11:38:55.472Z,8.59
2023-01-12T11:41:34.396Z,8.68
2023-01-12T11:44:15.374Z,8.76
2023-01-12T11:46:50.585Z,8.69
2023-01-12T11:49:30.302Z,8.71
2023-01-12T11:52:02.383Z,8.59
2023-01-12T11:54:33.241Z,8.51
2023-01-12T11:57:34.543Z,8.56
2023-01-12T12:00:24.781Z,8.51
2023-01-12T12:03:10.482Z,8.52
2023-01-12T12:05:50.579Z,8.53
2023-01-12T12:08:41.134Z,8.67
2023-01-12T12:11:23.423Z,8.54
2023-01-12T12:14:08.318Z,8.71
2023-01-12T12:16:49.995Z,8.73
2023-01-12T12:19:43.893Z,8.65
2023-01-12T12:22:34.912Z,8.49
2023-01-12T12:25:18.599Z,8.70
2023-01-12T12:28:11.087Z,8.52
2023-01-12T12:31:06.359Z,8.63
2023-01-12T12:33:58.141Z,8.57
2023-01-12T12:36:37.118Z,8.68
2023-01-12T12:39:37.095Z,8.66
2023-01-12T12:42:46.432Z,8.66
2023-01-12T12:45:28.816Z,8.58
2023-01-12T12:48:07.175Z,8.65
2023-01-12T12:50:44.370Z,8.49
2023-01-12T12:53:29.065Z,8.49
2023-01-12T12:56:03.719Z,8.42
2023-01-12T12:58:45.973Z,8.36
2023-01-12T13:01:43.436Z,8.26
2023-01-12T13:04:14.591Z,8.18
2023-01-12T13:06:50.597Z,8.21
2023-01-12T13:09:42.177Z,8.16
2023-01-12T13:12:33.145Z,8.18
2023-01-12T13:15:26.415Z,8.15
2023-01-12T13:17:57.313Z,8.14
2023-01-12T13:21:02.075Z,8.09
2023-01-12T13:23:50.647Z,8.16
2023-01-12T13:26:52.273Z,8.10
2023-01-12T13:29:40.683Z,8.14
2023-01-12T13:32:51.992Z,8.13
2023-01-12T13:35:44.582Z,8.11
2023-01-12T13:38:24.523Z,8.04
2023-01-12T13:40:55.988Z,8.04
2023-01-12T13:43:33.142Z,8.00
2023-01-12T13:46:06.712Z,8.01
2023-01-12T13:48:37.424Z,7.94
2023-01-12T13:51:18.441Z,7.94
2023-01-12T13:54:00.192Z,7.88
2023-01-12T13:56:29.595Z,7.82
2023-01-12T13:59:03.876Z,7.83
2023-01-12T14:01:37.304Z,7.86
2023-01-12T14:04:31.389Z,7.84
2023-01-12T14:07:13.439Z,7.79
2023-01-12T14:09:56.446Z,7.79
2023-01-12T14:13:07.284Z,7.72
2023-01-12T14:15:57.613Z,7.62
2023-01-12T14:18:29.431Z,7.54
2023-01-12T14:21:00.523Z,7.51
2023-01-12T14:23:33.788Z,7.48
2023-01-12T14:26:08.136Z,7.39
2023-01-12T14:28:38.634Z,7.36
2023-01-12T14:31:18.839Z,7.31
2023-01-12T14:33:53.064Z,7.24
2023-01-12T14:36:28.612Z,7.20
2023-01-12T14:39:00.691Z,7.15
2023-01-12T14:41:49.027Z,7.17
2023-01-12T14:44:39.483Z,7.07
2023-01-12T14:47:10.865Z,7.02
2023-01-12T14:49:40.245Z,7.09
2023-01-12T14:52:27.123Z,7.00
2023-01-12T14:54:56.310Z,6.92
2023-01-12T14:57:34.593Z,6.87
2023-01-12T15:00:06.090Z,6.78
2023-01-12T15:02:40.152Z,6.76
2023-01-12T15:05:23.040Z,6.76
2023-01-12T15:07:58.760Z,6.63
2023-01-12T15:10:33.593Z,6.60
2023-01-12T15:13:26.459Z,6.59
2023-01-12T15:16:15.315Z,6.45
2023-01-12T15:19:03.699Z,6.48
2023-01-12T15:21:51.876Z,6.40
2023-01-12T15:24:43.341Z,6.39
2023-01-12T15:27:15.673Z,6.36
2023-01-12T15:29:44.666Z,6.30
2023-01-12T15:32:21.158Z,6.26
2023-01-12T15:34:51.480Z,6.24
2023-01-12T15:37:21.783Z,6.24
2023-01-12T15:39:50.675Z,6.26
2023-01-12T15:42:22.776Z,6.14
2023-01-12T15:44:53.947Z,6.11
2023-01-12T15:47:23.615Z,6.11
2023-01-12T15:49:54.380Z,6.11
2023-01-12T15:52:26.558Z,6.10
2023-01-12T15:54:55.371Z,6.18
2023-01-12T15:57:24.428Z,6.17
2023-01-12T15:59:53.520Z,6.12
2023-01-12T16:02:34.437Z,6.07
2023-01-12T16:05:06.773Z,6.09
2023-01-12T16:07:35.960Z,6.05
2023-01-12T16:10:06.670Z,6.00
2023-01-12T16:12:37.061Z,5.98
2023-01-12T16:15:07.410Z,6.02
2023-01-12T16:17:36.804Z,5.95
2023-01-12T16:20:09.221Z,5.95
2023-01-12T16:22:38.319Z,5.92
2023-01-12T16:25:08.759Z,5.96
2023-01-12T16:27:38.798Z,5.94
2023-01-12T16:30:13.163Z,5.98
2023-01-12T16:32:46.469Z,6.01
2023-01-12T16:35:17.421Z,5.98
2023-01-12T16:37:46.568Z,6.01
2023-01-12T16:40:15.737Z,5.96
2023-01-12T16:42:44.839Z,5.95
2023-01-12T16:45:13.872Z,5.90
2023-01-12T16:47:42.940Z,5.91
2023-01-12T16:50:11.829Z,5.86
2023-01-12T16:52:42.304Z,5.82
2023-01-12T16:55:11.238Z,5.85
2023-01-12T16:57:41.129Z,5.77
2023-01-12T17:00:12.399Z,5.73
2023-01-12T17:02:41.880Z,5.77
2023-01-12T17:05:12.026Z,5.71
2023-01-12T17:07:43.184Z,5.68
2023-01-12T17:10:12.945Z,5.64
2023-01-12T17:12:58.059Z,5.61
2023-01-12T17:15:31.557Z,5.57
2023-01-12T17:18:01.231Z,5.61
2023-01-12T17:20:30.415Z,5.67
2023-01-12T17:23:01.888Z,5.67
2023-01-12T17:25:30.781Z,5.61
2023-01-12T17:27:59.970Z,5.69
2023-01-12T17:30:28.904Z,5.66
2023-01-12T17:32:58.056Z,5.56
2023-01-12T17:35:27.402Z,5.66
2023-01-12T17:37:56.589Z,5.64
2023-01-12T17:40:27.403Z,5.56
2023-01-12T17:43:07.746Z,5.51
2023-01-12T17:45:42.609Z,5.60
2023-01-12T17:48:13.239Z,5.62
2023-01-12T17:50:42.291Z,5.72
2023-01-12T17:53:11.714Z,5.69
2023-01-12T17:55:48.557Z,5.76
2023-01-12T17:58:18.675Z,5.65
2023-01-12T18:00:47.537Z,5.72
2023-01-12T18:03:16.721Z,5.75
2023-01-12T18:05:50.018Z,5.75
2023-01-12T18:08:22.668Z,5.71
2023-01-12T18:10:52.925Z,5.72
2023-01-12T18:13:22.057Z,5.85
2023-01-12T18:15:51.096Z,5.81
2023-01-12T18:18:20.259Z,5.83
2023-01-12T18:20:52.321Z,5.79
2023-01-12T18:23:21.810Z,5.86
2023-01-12T18:25:52.082Z,5.88
2023-01-12T18:28:21.195Z,5.89
2023-01-12T18:30:50.221Z,5.93
2023-01-12T18:33:19.344Z,5.96
2023-01-12T18:35:48.190Z,5.94
2023-01-12T18:38:17.285Z,5.96
2023-01-12T18:41:06.692Z,5.97
2023-01-12T18:43:36.230Z,6.05
2023-01-12T18:46:13.248Z,6.11
2023-01-12T18:48:45.730Z,6.25
2023-01-12T18:51:34.110Z,6.18
2023-01-12T18:54:03.211Z,6.14
2023-01-12T18:56:32.035Z,6.32
2023-01-12T18:59:04.283Z,6.29
2023-01-12T19:01:33.162Z,6.35
2023-01-12T19:04:02.757Z,6.35
2023-01-12T19:06:43.068Z,6.25
2023-01-12T19:09:31.196Z,6.17
2023-01-12T19:12:01.558Z,6.12
2023-01-12T19:14:49.655Z,6.09
2023-01-12T19:17:27.947Z,6.13
2023-01-12T19:19:58.829Z,6.17
2023-01-12T19:22:46.620Z,6.26
2023-01-12T19:25:35.574Z,6.29
2023-01-12T19:28:25.878Z,6.32
2023-01-12T19:31:01.871Z,6.36
2023-01-12T19:33:31.402Z,6.31
2023-01-12T19:36:06.380Z,6.25
2023-01-12T19:38:36.026Z,6.24
2023-01-12T19:41:12.698Z,6.36
2023-01-12T19:43:45.233Z,6.27
2023-01-12T19:46:15.956Z,6.36
2023-01-12T19:48:45.573Z,6.37
2023-01-12T19:51:14.749Z,6.42
2023-01-12T19:53:43.547Z,6.46
2023-01-12T19:56:14.575Z,6.44
2023-01-12T19:58:45.032Z,6.49
2023-01-12T20:01:23.189Z,6.53
2023-01-12T20:03:52.623Z,6.59
2023-01-12T20:06:21.781Z,6.48
2023-01-12T20:08:50.652Z,6.60
2023-01-12T20:11:19.933Z,6.60
2023-01-12T20:13:48.739Z,6.64
2023-01-12T20:16:17.975Z,6.59
2023-01-12T20:18:48.718Z,6.70
2023-01-12T20:21:17.816Z,6.71
2023-01-12T20:23:46.609Z,6.71
2023-01-12T20:26:15.914Z,6.64
2023-01-12T20:28:44.986Z,6.69
2023-01-12T20:31:17.226Z,6.62
2023-01-12T20:33:47.726Z,6.71
2023-01-12T20:36:18.678Z,6.67
2023-01-12T20:38:47.980Z,6.65
2023-01-12T20:41:17.083Z,6.81
2023-01-12T20:43:46.157Z,6.79
2023-01-12T20:46:15.948Z,6.74
2023-01-12T20:48:47.116Z,6.73
2023-01-12T20:51:18.148Z,6.73
2023-01-12T20:53:47.064Z,6.77
2023-01-12T20:56:16.201Z,6.94
2023-01-12T20:58:45.056Z,6.88
2023-01-12T21:01:16.688Z,6.83
2023-01-12T21:03:47.303Z,6.83
2023-01-12T21:06:18.706Z,6.90
2023-01-12T21:08:48.994Z,6.95
2023-01-12T21:11:21.463Z,6.94
2023-01-12T21:13:50.362Z,7.00
2023-01-12T21:16:22.667Z,6.98
2023-01-12T21:18:53.619Z,6.93
2023-01-12T21:21:22.841Z,7.05
2023-01-12T21:23:51.712Z,7.08
2023-01-12T21:26:21.082Z,7.17
2023-01-12T21:28:49.979Z,7.03
2023-01-12T21:31:19.117Z,7.05
2023-01-12T21:33:48.011Z,7.11
2023-01-12T21:36:19.788Z,7.20
2023-01-12T21:38:51.984Z,7.14
2023-01-12T21:41:22.507Z,7.19
2023-01-12T21:43:53.200Z,7.14
2023-01-12T21:46:22.866Z,7.16
2023-01-12T21:48:51.746Z,7.31
2023-01-12T21:51:22.213Z,7.23
2023-01-12T21:53:51.685Z,7.22
2023-01-12T21:56:20.828Z,7.22
2023-01-12T21:58:49.742Z,7.40
2023-01-12T22:01:19.459Z,7.33
2023-01-12T22:03:48.374Z,7.40
2023-01-12T22:06:17.522Z,7.26
2023-01-12T22:08:47.854Z,7.35
2023-01-12T22:11:18.376Z,7.37
2023-01-12T22:13:47.254Z,7.35
2023-01-12T22:16:17.948Z,7.32
2023-01-12T22:18:50.199Z,7.35
2023-01-12T22:21:21.897Z,7.25
2023-01-12T22:23:52.065Z,7.30
2023-01-12T22:26:21.809Z,7.24
2023-01-12T22:28:50.676Z,7.25
2023-01-12T22:31:22.958Z,7.17
2023-01-12T22:33:58.660Z,7.22
2023-01-12T22:36:27.842Z,7.17
2023-01-12T22:38:58.077Z,7.19
2023-01-12T22:41:27.738Z,7.18
2023-01-12T22:43:56.887Z,7.16
2023-01-12T22:46:28.338Z,7.18
2023-01-12T22:48:59.365Z,7.23
2023-01-12T22:51:31.357Z,7.14
2023-01-12T22:54:01.587Z,7.19
2023-01-12T22:56:30.863Z,7.23
2023-01-12T22:58:59.671Z,7.26
2023-01-12T23:01:28.965Z,7.26
2023-01-12T23:03:59.174Z,7.19
2023-01-12T23:06:29.068Z,7.22
2023-01-12T23:08:57.914Z,7.22
2023-01-12T23:11:28.429Z,7.24
2023-01-12T23:13:57.242Z,7.19
2023-01-12T23:16:28.635Z,7.21
2023-01-12T23:18:57.601Z,7.23
2023-01-12T23:21:29.105Z,7.25
2023-01-12T23:24:01.377Z,7.21
2023-01-12T23:26:33.989Z,7.20
2023-01-12T23:29:03.590Z,7.20
2023-01-12T23:31:35.093Z,7.25
2023-01-12T23:34:04.079Z,7.26
2023-01-12T23:36:33.335Z,7.38
2023-01-12T23:39:05.695Z,7.41
2023-01-12T23:41:38.558Z,7.32
2023-01-12T23:44:10.779Z,7.30
2023-01-12T23:46:43.178Z,7.28
2023-01-12T23:49:12.750Z,7.33
2023-01-12T23:51:41.633Z,7.39
2023-01-12T23:54:18.452Z,7.39
2023-01-12T23:56:53.429Z,7.42
2023-01-12T23:59:22.576Z,7.40
